Terminal Aerodrome Forecast
Issued by NWS Portland, OR

Home | Current Version | Previous Version | Text Only | Print | Product List | Glossary On
Versions: 1 2 3 4 5 6 7 8 9 10 11 12 13 14 15 16 17 18 19 20 21 22 23 24 25 26 27 28 29 30 31 32 33 34 35
775
FTUS46 KPQR 302325
TAFTTD
TAF
KTTD 302325Z 3100/3124 28007KT P6SM VCSH SCT035 BKN060
     FM310200 26006KT P6SM BKN050
     FM310500 VRB03KT P6SM SCT050
     FM311000 VRB02KT P6SM OVC012
     FM311700 VRB03KT P6SM SCT015
     FM311900 VRB04KT P6SM SCT250=

USA.gov is the U.S. government's official web portal to all federal, state and local government web resources and services.